Time;durP1;ratioP1;P1;durP2;ratioP2;P2;SDS_P1;SDS_P2;PMS_P1;PMS_P2;Temp;Humidity;BMP_temperature;BMP_pressure;BME280_temperature;BME280_humidity;BME280_pressure;Samples;Min_cycle;Max_cycle;Signal;HPM_P1;HPM_P2
2022/06/09 00:00:41;;;;;;;3.80;0.82;;;20.30;59.40;;;;;;5056114;28;20040;-74
2022/06/09 00:03:16;;;;;;;0.68;0.60;;;20.30;58.80;;;;;;5056075;28;20028;-74
2022/06/09 00:05:42;;;;;;;1.60;0.70;;;20.30;58.90;;;;;;5055597;28;20028;-73
2022/06/09 00:08:09;;;;;;;0.40;0.40;;;20.20;58.40;;;;;;5055933;28;20025;-74
2022/06/09 00:10:42;;;;;;;2.28;0.68;;;20.20;58.80;;;;;;5055889;28;20028;-74
2022/06/09 00:13:11;;;;;;;1.00;0.50;;;20.20;58.50;;;;;;5055900;28;20067;-74
2022/06/09 00:15:43;;;;;;;1.45;0.85;;;20.10;58.70;;;;;;5073471;28;20024;-73
2022/06/09 00:18:11;;;;;;;1.70;0.60;;;20.10;58.90;;;;;;5055477;28;20030;-74
2022/06/09 00:20:39;;;;;;;1.13;0.60;;;20.10;58.60;;;;;;5055695;28;20462;-74
2022/06/09 00:23:05;;;;;;;1.30;0.60;;;20.10;59.30;;;;;;5055623;28;20035;-74
2022/06/09 00:25:33;;;;;;;3.65;1.05;;;20.00;59.30;;;;;;5055672;28;20024;-74
2022/06/09 00:27:59;;;;;;;0.45;0.32;;;20.00;59.10;;;;;;5055845;28;20047;-74
2022/06/09 00:30:28;;;;;;;2.70;0.63;;;19.90;59.60;;;;;;5055537;28;20032;-74
2022/06/09 00:32:56;;;;;;;12.50;0.80;;;19.80;59.50;;;;;;5073257;28;20021;-74
2022/06/09 00:35:22;;;;;;;0.80;0.60;;;19.90;59.20;;;;;;5055533;28;20356;-73
2022/06/09 00:37:48;;;;;;;1.80;0.65;;;19.80;59.20;;;;;;5055496;28;20158;-74
2022/06/09 00:40:17;;;;;;;0.95;0.52;;;19.70;59.30;;;;;;5055244;28;20033;-74
2022/06/09 00:42:49;;;;;;;2.30;0.80;;;19.70;60.00;;;;;;5055432;28;20056;-73
2022/06/09 00:45:27;;;;;;;1.77;0.70;;;19.70;59.90;;;;;;5055507;28;20479;-73
2022/06/09 00:48:13;;;;;;;5.05;0.77;;;19.60;60.00;;;;;;5055512;28;20033;-73
2022/06/09 00:50:43;;;;;;;4.22;0.85;;;19.60;59.90;;;;;;5055440;28;20403;-73
2022/06/09 00:53:16;;;;;;;4.45;0.90;;;19.60;59.80;;;;;;5055140;28;20115;-73
2022/06/09 00:55:43;;;;;;;1.83;0.88;;;19.60;60.10;;;;;;5038300;28;20052;-73
2022/06/09 00:58:17;;;;;;;2.42;0.90;;;19.50;60.10;;;;;;5035264;28;20033;-73
2022/06/09 01:00:59;;;;;;;2.20;0.73;;;19.50;60.20;;;;;;5052905;28;20060;-73
2022/06/09 01:03:30;;;;;;;3.83;0.90;;;19.50;60.20;;;;;;5035368;28;20116;-74
2022/06/09 01:06:07;;;;;;;1.77;0.90;;;19.50;60.50;;;;;;5035300;28;20029;-73
2022/06/09 01:08:38;;;;;;;3.30;0.70;;;19.50;61.40;;;;;;5034985;28;20032;-73
2022/06/09 01:11:05;;;;;;;1.25;0.60;;;19.40;61.40;;;;;;5035095;28;20021;-73
2022/06/09 01:13:32;;;;;;;2.65;0.70;;;19.40;62.10;;;;;;5053196;28;20037;-73
2022/06/09 01:16:29;;;;;;;5.38;1.00;;;19.40;62.50;;;;;;5053099;28;20029;-73
2022/06/09 01:19:40;;;;;;;1.88;0.90;;;19.40;62.20;;;;;;5034656;28;20044;-73
2022/06/09 01:22:23;;;;;;;1.60;0.70;;;19.40;62.30;;;;;;5034905;28;20083;-73
2022/06/09 01:25:01;;;;;;;4.15;1.00;;;19.30;62.70;;;;;;5034953;28;20033;-74
2022/06/09 01:28:18;;;;;;;2.88;0.98;;;19.30;63.20;;;;;;5034906;28;20373;-73
2022/06/09 01:31:03;;;;;;;1.33;0.77;;;19.30;63.30;;;;;;5034639;28;20025;-74
2022/06/09 01:33:34;;;;;;;1.80;0.85;;;19.30;63.20;;;;;;5034947;28;20025;-73
2022/06/09 01:36:23;;;;;;;1.80;1.05;;;19.30;63.60;;;;;;5034949;28;20393;-74
2022/06/09 01:38:56;;;;;;;1.83;0.80;;;19.20;64.00;;;;;;5052384;28;20072;-74
2022/06/09 01:41:27;;;;;;;1.00;0.52;;;19.20;63.90;;;;;;5051382;28;20348;-73
2022/06/09 01:43:57;;;;;;;3.42;1.15;;;19.20;64.60;;;;;;5034654;28;20119;-73
2022/06/09 01:46:31;;;;;;;6.10;0.95;;;19.20;64.40;;;;;;5034685;28;20060;-73
2022/06/09 01:49:07;;;;;;;2.95;1.23;;;19.20;64.40;;;;;;5052304;28;20037;-74
2022/06/09 01:51:37;;;;;;;5.05;1.30;;;19.20;64.70;;;;;;5052406;28;20029;-73
2022/06/09 01:54:17;;;;;;;2.58;1.38;;;19.20;64.30;;;;;;5037856;28;20110;-74
2022/06/09 01:56:49;;;;;;;1.58;0.75;;;19.20;64.50;;;;;;5038415;28;20029;-73
2022/06/09 01:59:21;;;;;;;2.35;1.05;;;19.30;65.10;;;;;;5054834;28;20037;-74
2022/06/09 02:02:04;;;;;;;1.15;0.88;;;19.30;65.10;;;;;;5038236;28;20119;-74
2022/06/09 02:04:36;;;;;;;2.15;0.80;;;19.30;65.10;;;;;;5038220;28;20024;-73
2022/06/09 02:07:07;;;;;;;1.75;0.80;;;19.30;65.10;;;;;;5038457;28;20112;-73
2022/06/09 02:09:37;;;;;;;3.42;1.45;;;19.30;65.10;;;;;;5037969;28;20033;-74
2022/06/09 02:12:14;;;;;;;3.08;1.00;;;19.40;65.20;;;;;;5037843;28;20028;-74
2022/06/09 02:14:45;;;;;;;2.13;0.85;;;19.40;64.50;;;;;;5038117;28;20415;-74
2022/06/09 02:17:10;;;;;;;1.42;0.75;;;19.40;64.80;;;;;;5038039;28;20111;-73
2022/06/09 02:19:39;;;;;;;3.10;0.93;;;19.50;65.20;;;;;;5037794;28;20116;-73
2022/06/09 02:22:08;;;;;;;1.15;0.82;;;19.50;64.50;;;;;;5037783;28;20033;-74
2022/06/09 02:24:35;;;;;;;1.75;0.77;;;19.50;64.50;;;;;;5037920;28;20469;-73
2022/06/09 02:27:05;;;;;;;3.35;1.13;;;19.50;64.90;;;;;;5037800;28;20119;-73
2022/06/09 02:29:35;;;;;;;2.30;1.05;;;19.50;64.60;;;;;;5037613;28;20075;-73
2022/06/09 02:32:01;;;;;;;1.65;1.13;;;19.50;64.50;;;;;;5037704;28;20373;-73
2022/06/09 02:34:27;;;;;;;1.42;1.00;;;19.50;64.80;;;;;;5037601;28;20036;-73
2022/06/09 02:36:53;;;;;;;2.20;1.00;;;19.50;64.50;;;;;;5037649;28;20029;-73
2022/06/09 02:39:21;;;;;;;2.60;1.00;;;19.50;64.70;;;;;;5037397;28;20464;-73
2022/06/09 02:41:50;;;;;;;1.77;0.73;;;19.50;64.70;;;;;;5037221;28;20482;-73
2022/06/09 02:44:15;;;;;;;1.33;0.57;;;19.60;64.20;;;;;;5037451;28;20025;-74
2022/06/09 02:46:44;;;;;;;1.40;0.90;;;19.50;64.70;;;;;;5037433;28;20097;-73
2022/06/09 02:49:10;;;;;;;0.60;0.55;;;19.50;64.80;;;;;;5037325;28;20118;-73
2022/06/09 02:51:41;;;;;;;1.85;0.63;;;19.50;64.70;;;;;;5054909;28;20465;-73
2022/06/09 02:54:10;;;;;;;2.35;0.90;;;19.50;64.40;;;;;;5040166;28;20049;-73
2022/06/09 02:56:39;;;;;;;1.92;0.82;;;19.50;64.50;;;;;;5057204;28;20206;-73
2022/06/09 02:59:08;;;;;;;2.42;0.80;;;19.50;64.30;;;;;;5074609;28;20392;-73
2022/06/09 03:01:34;;;;;;;0.85;0.68;;;19.50;64.70;;;;;;5056982;28;20336;-73
2022/06/09 03:04:00;;;;;;;0.88;0.70;;;19.50;64.50;;;;;;5056923;28;20027;-73
2022/06/09 03:06:26;;;;;;;1.67;0.70;;;19.50;64.70;;;;;;5056784;28;20037;-73
2022/06/09 03:08:54;;;;;;;1.98;0.90;;;19.50;64.80;;;;;;5056839;28;20032;-73
2022/06/09 03:11:23;;;;;;;0.95;0.77;;;19.50;64.30;;;;;;5056825;28;20024;-73
2022/06/09 03:13:48;;;;;;;1.00;0.50;;;19.50;64.40;;;;;;5056682;28;20096;-73
2022/06/09 03:16:20;;;;;;;4.13;0.80;;;19.50;64.60;;;;;;5056718;28;20159;-73
2022/06/09 03:18:46;;;;;;;1.95;0.75;;;19.50;64.20;;;;;;5056693;28;20788;-73
2022/06/09 03:21:17;;;;;;;1.42;0.63;;;19.50;64.10;;;;;;5056663;28;20456;-74
2022/06/09 03:23:42;;;;;;;0.63;0.63;;;19.50;64.70;;;;;;5056603;28;20079;-73
2022/06/09 03:26:08;;;;;;;0.98;0.75;;;19.60;64.60;;;;;;5056464;28;20028;-73
2022/06/09 03:28:35;;;;;;;0.68;0.63;;;19.50;64.00;;;;;;5056394;28;20021;-73
2022/06/09 03:31:01;;;;;;;1.63;0.73;;;19.60;65.00;;;;;;5056393;28;20097;-73
2022/06/09 03:33:27;;;;;;;1.50;0.63;;;19.60;64.70;;;;;;5056409;28;20056;-73
2022/06/09 03:35:53;;;;;;;0.65;0.50;;;19.60;64.40;;;;;;5056271;28;20074;-73
2022/06/09 03:38:22;;;;;;;1.02;0.68;;;19.70;64.60;;;;;;5074003;28;20028;-73
2022/06/09 03:40:47;;;;;;;3.05;0.93;;;19.70;64.30;;;;;;5055927;28;20032;-73
2022/06/09 03:43:13;;;;;;;1.85;0.75;;;19.70;64.30;;;;;;5056130;28;20495;-73
2022/06/09 03:45:39;;;;;;;0.70;0.60;;;19.80;64.40;;;;;;5056092;28;20029;-74
2022/06/09 03:48:08;;;;;;;1.35;0.82;;;19.80;64.00;;;;;;5056052;28;20354;-73
2022/06/09 03:50:34;;;;;;;1.27;0.70;;;19.70;63.10;;;;;;5056027;28;20029;-73
2022/06/09 03:53:01;;;;;;;0.90;0.68;;;19.80;64.40;;;;;;5055889;28;20058;-73
2022/06/09 03:55:30;;;;;;;0.40;0.40;;;19.80;64.30;;;;;;5041201;28;20061;-73
2022/06/09 03:57:55;;;;;;;1.40;0.77;;;19.80;64.50;;;;;;5035881;28;20096;-73
2022/06/09 04:00:28;;;;;;;2.13;0.63;;;19.80;64.50;;;;;;5035570;28;20273;-73
2022/06/09 04:02:55;;;;;;;2.03;0.90;;;19.90;64.10;;;;;;5035926;28;20388;-73
2022/06/09 04:05:21;;;;;;;1.83;0.70;;;20.00;64.10;;;;;;5052428;28;20029;-74
2022/06/09 04:07:47;;;;;;;1.10;0.60;;;20.00;64.50;;;;;;5035791;28;20032;-74
2022/06/09 04:10:20;;;;;;;1.85;0.63;;;20.00;64.40;;;;;;5053338;28;20384;-73
2022/06/09 04:12:46;;;;;;;1.52;0.70;;;20.10;64.80;;;;;;5035770;28;20025;-74
2022/06/09 04:15:12;;;;;;;6.18;2.70;;;20.10;64.10;;;;;;5035184;28;20449;-74
2022/06/09 04:17:42;;;;;;;1.08;0.90;;;20.10;64.40;;;;;;5035690;28;20031;-73
2022/06/09 04:20:09;;;;;;;0.82;0.68;;;20.20;64.40;;;;;;5035150;28;20037;-73
2022/06/09 04:22:35;;;;;;;0.60;0.60;;;20.30;64.00;;;;;;5052087;28;20400;-73
2022/06/09 04:25:01;;;;;;;3.20;0.70;;;20.30;63.90;;;;;;5051854;28;20025;-73
2022/06/09 04:27:29;;;;;;;3.53;0.70;;;20.30;63.80;;;;;;5051994;28;20025;-74
2022/06/09 04:29:57;;;;;;;2.15;0.50;;;20.40;63.70;;;;;;5051974;28;20033;-73
2022/06/09 04:32:24;;;;;;;1.50;0.50;;;20.50;64.20;;;;;;5052975;28;20449;-75
2022/06/09 04:34:53;;;;;;;1.20;0.68;;;20.50;63.10;;;;;;5035371;28;20484;-73
2022/06/09 04:37:19;;;;;;;1.67;0.70;;;20.60;64.30;;;;;;5035237;28;20029;-73
2022/06/09 04:39:48;;;;;;;1.08;0.60;;;20.70;64.10;;;;;;5035229;28;20088;-73
2022/06/09 04:42:13;;;;;;;1.00;0.50;;;20.70;63.80;;;;;;5035168;28;20051;-73
2022/06/09 04:44:39;;;;;;;0.68;0.35;;;20.90;63.20;;;;;;5035171;28;20481;-73
2022/06/09 04:47:05;;;;;;;1.08;0.70;;;20.90;63.00;;;;;;5051704;28;20034;-73
2022/06/09 04:49:31;;;;;;;1.45;0.60;;;21.10;63.10;;;;;;5035250;28;20028;-74
2022/06/09 04:51:59;;;;;;;1.48;0.60;;;21.10;63.30;;;;;;5035188;28;20044;-74
2022/06/09 04:54:25;;;;;;;0.80;0.40;;;21.20;61.80;;;;;;5040633;28;20051;-73
2022/06/09 04:56:53;;;;;;;0.30;0.30;;;21.30;62.10;;;;;;5054861;28;20504;-73
2022/06/09 04:59:20;;;;;;;1.35;0.47;;;21.40;61.40;;;;;;5071531;28;20052;-73
2022/06/09 05:01:47;;;;;;;0.47;0.40;;;21.40;60.00;;;;;;5054897;28;20020;-73
2022/06/09 05:04:15;;;;;;;2.10;0.63;;;21.50;61.20;;;;;;5054844;28;20024;-73
2022/06/09 05:06:41;;;;;;;0.80;0.40;;;21.50;61.80;;;;;;5054786;28;20487;-73
2022/06/09 05:09:06;;;;;;;1.60;0.60;;;21.60;62.20;;;;;;5054819;28;20029;-73
2022/06/09 05:11:35;;;;;;;1.00;0.60;;;21.70;61.70;;;;;;5054567;28;20045;-73
2022/06/09 05:14:02;;;;;;;1.75;0.43;;;21.70;61.80;;;;;;5054573;28;20448;-73
2022/06/09 05:16:28;;;;;;;0.40;0.40;;;21.80;61.40;;;;;;5054587;28;20024;-73
2022/06/09 05:18:56;;;;;;;0.60;0.40;;;21.90;61.70;;;;;;5054408;28;20033;-73
2022/06/09 05:21:22;;;;;;;2.78;1.13;;;21.90;61.30;;;;;;5054742;28;20115;-73
2022/06/09 05:23:51;;;;;;;0.65;0.43;;;21.90;60.80;;;;;;5054624;28;20091;-73
2022/06/09 05:26:17;;;;;;;1.20;0.52;;;21.90;59.10;;;;;;5054321;28;20078;-73
2022/06/09 05:28:46;;;;;;;6.40;0.40;;;21.80;60.00;;;;;;5057631;28;20125;-73
2022/06/09 05:31:16;;;;;;;0.80;0.47;;;21.80;60.00;;;;;;5058247;28;20483;-73
2022/06/09 05:33:42;;;;;;;1.15;0.68;;;21.80;60.00;;;;;;5075974;28;20504;-73
2022/06/09 05:36:08;;;;;;;3.88;0.70;;;21.80;59.80;;;;;;5058253;28;20032;-73
2022/06/09 05:46:48;;;;;;;0.65;0.50;;;21.70;59.50;;;;;;5075912;28;20043;-73
2022/06/09 05:49:16;;;;;;;1.23;0.55;;;21.60;60.60;;;;;;5057999;28;20046;-74
2022/06/09 05:51:44;;;;;;;3.17;0.50;;;21.60;61.30;;;;;;5058181;28;20033;-74
2022/06/09 05:54:13;;;;;;;2.05;0.60;;;21.60;60.60;;;;;;5071151;28;20055;-73
2022/06/09 05:56:41;;;;;;;0.32;0.32;;;21.60;60.30;;;;;;5037895;28;20095;-73
2022/06/09 05:59:09;;;;;;;0.80;0.40;;;21.50;60.40;;;;;;5071197;28;20432;-73
2022/06/09 06:01:35;;;;;;;0.93;0.50;;;21.50;61.00;;;;;;5037961;28;20032;-73
2022/06/09 06:04:05;;;;;;;2.63;0.80;;;21.50;61.30;;;;;;5037583;28;20358;-73
2022/06/09 06:06:34;;;;;;;1.15;0.73;;;21.50;61.50;;;;;;5037379;28;20052;-74
2022/06/09 06:09:13;;;;;;;1.42;0.60;;;21.50;61.70;;;;;;5037620;28;20034;-73
2022/06/09 06:11:40;;;;;;;0.40;0.40;;;21.60;61.30;;;;;;5055555;28;20116;-73
2022/06/09 06:14:08;;;;;;;2.10;0.70;;;21.70;60.70;;;;;;5037649;28;20479;-73
2022/06/09 06:16:37;;;;;;;0.50;0.50;;;21.70;60.00;;;;;;5037653;28;20476;-73
2022/06/09 06:19:05;;;;;;;1.05;0.40;;;21.80;60.30;;;;;;5037652;28;20029;-73
2022/06/09 06:21:35;;;;;;;1.08;0.50;;;21.80;60.40;;;;;;5055506;28;20087;-74
2022/06/09 06:24:02;;;;;;;1.38;0.60;;;21.90;60.60;;;;;;5037529;28;20029;-73
2022/06/09 06:26:33;;;;;;;2.03;0.80;;;21.90;59.40;;;;;;5037832;28;20094;-74
2022/06/09 06:29:06;;;;;;;3.17;0.50;;;22.00;60.70;;;;;;5037392;28;20036;-73
2022/06/09 06:31:32;;;;;;;0.90;0.70;;;22.00;59.30;;;;;;5037672;28;20047;-73
2022/06/09 06:33:58;;;;;;;7.20;0.65;;;22.00;60.20;;;;;;5037385;28;20079;-73
2022/06/09 06:36:24;;;;;;;1.45;0.50;;;22.10;59.20;;;;;;5037322;28;20037;-73
2022/06/09 06:38:50;;;;;;;0.60;0.40;;;22.00;59.60;;;;;;5036938;28;20041;-73
2022/06/09 06:41:17;;;;;;;0.90;0.43;;;22.10;59.80;;;;;;5055163;28;20029;-73
2022/06/09 06:43:45;;;;;;;0.65;0.40;;;22.10;59.40;;;;;;5037489;28;20119;-73
2022/06/09 06:46:11;;;;;;;0.30;0.30;;;22.10;59.20;;;;;;5037503;28;20021;-73
2022/06/09 06:48:37;;;;;;;0.30;0.30;;;22.00;60.50;;;;;;5037423;28;20427;-73
2022/06/09 06:51:05;;;;;;;1.67;0.60;;;22.10;59.50;;;;;;5037429;28;20029;-73
2022/06/09 06:53:39;;;;;;;1.52;0.60;;;22.10;58.80;;;;;;5036965;28;20506;-73
2022/06/09 06:56:05;;;;;;;;;;;22.00;59.60;;;;;;5037161;28;20049;-73
2022/06/09 06:58:34;;;;;;;0.95;0.50;;;22.00;60.30;;;;;;5037409;28;20332;-73
2022/06/09 07:01:01;;;;;;;1.02;0.60;;;22.00;60.30;;;;;;5037041;28;20456;-73
2022/06/09 07:03:30;;;;;;;0.73;0.40;;;22.00;59.30;;;;;;5036867;28;20354;-73
2022/06/09 07:05:56;;;;;;;0.77;0.50;;;22.10;59.90;;;;;;5037190;28;20021;-73
2022/06/09 07:08:25;;;;;;;4.15;0.60;;;22.10;59.50;;;;;;5037139;28;20024;-73
2022/06/09 07:10:52;;;;;;;10.18;0.98;;;22.20;59.60;;;;;;5037023;28;20115;-74
2022/06/09 07:13:18;;;;;;;0.50;0.50;;;22.20;59.60;;;;;;5054654;28;20059;-73
2022/06/09 07:15:45;;;;;;;1.33;0.52;;;22.30;60.30;;;;;;5036980;28;20064;-74
2022/06/09 07:18:11;;;;;;;0.30;0.30;;;22.30;60.00;;;;;;5055023;28;20024;-73
2022/06/09 07:20:41;;;;;;;0.95;0.47;;;22.30;60.10;;;;;;5036591;28;20039;-73
2022/06/09 07:23:07;;;;;;;2.38;0.60;;;22.40;58.60;;;;;;5036774;28;20028;-73
2022/06/09 07:25:35;;;;;;;0.77;0.50;;;22.40;59.90;;;;;;5036662;28;20021;-74
2022/06/09 07:28:02;;;;;;;1.15;0.40;;;22.30;59.20;;;;;;5036643;28;20437;-73
2022/06/09 07:30:29;;;;;;;0.50;0.35;;;22.30;58.50;;;;;;5036567;28;20040;-74
2022/06/09 07:32:55;;;;;;;0.88;0.50;;;22.20;58.60;;;;;;5036272;28;20032;-74
2022/06/09 07:35:24;;;;;;;3.15;0.63;;;22.30;58.70;;;;;;5036388;28;20025;-74
2022/06/09 07:37:50;;;;;;;0.20;0.20;;;22.30;59.60;;;;;;5036459;28;20115;-74
2022/06/09 07:40:20;;;;;;;1.60;0.47;;;22.40;59.50;;;;;;5036464;28;20137;-74
2022/06/09 07:42:49;;;;;;;0.32;0.32;;;22.50;58.80;;;;;;5036163;28;20116;-73
2022/06/09 07:45:18;;;;;;;0.90;0.70;;;22.60;58.70;;;;;;5036045;28;20025;-74
2022/06/09 07:47:44;;;;;;;0.50;0.50;;;22.60;58.00;;;;;;5036116;28;20047;-73
2022/06/09 07:50:14;;;;;;;1.83;0.52;;;22.70;60.00;;;;;;5035401;28;20499;-73
2022/06/09 07:52:40;;;;;;;5.07;0.80;;;22.70;59.50;;;;;;5053899;28;20029;-73
2022/06/09 07:55:07;;;;;;;0.60;0.45;;;22.80;59.60;;;;;;5047094;28;20473;-74
2022/06/09 07:57:38;;;;;;;1.73;0.50;;;22.90;59.30;;;;;;5055894;28;20033;-73
2022/06/09 08:00:06;;;;;;;0.50;0.50;;;22.90;59.40;;;;;;5055983;28;20029;-73
2022/06/09 08:02:35;;;;;;;2.25;0.60;;;23.00;59.10;;;;;;5055943;28;20476;-74
2022/06/09 08:05:04;;;;;;;2.50;0.50;;;23.10;59.40;;;;;;5055960;28;20033;-73
2022/06/09 08:07:30;;;;;;;0.88;0.60;;;23.20;59.00;;;;;;5073708;28;20031;-73
2022/06/09 08:09:56;;;;;;;2.10;0.98;;;23.30;58.10;;;;;;5055871;28;20032;-73
2022/06/09 08:12:22;;;;;;;1.65;0.90;;;23.30;58.50;;;;;;5055717;28;20024;-74
2022/06/09 08:14:50;;;;;;;0.77;0.50;;;23.40;58.40;;;;;;5055826;28;20032;-73
2022/06/09 08:17:22;;;;;;;0.80;0.70;;;23.50;58.40;;;;;;5055726;28;20426;-74
2022/06/09 08:19:51;;;;;;;0.82;0.80;;;23.50;58.20;;;;;;5055682;28;20487;-73
2022/06/09 08:22:19;;;;;;;0.60;0.60;;;23.50;59.40;;;;;;5055709;28;20025;-73
2022/06/09 08:24:49;;;;;;;1.15;0.70;;;23.60;59.20;;;;;;5055567;28;20031;-74
2022/06/09 08:27:17;;;;;;;1.15;0.80;;;23.70;59.30;;;;;;5055599;28;20021;-73
2022/06/09 08:29:46;;;;;;;0.90;0.68;;;23.80;58.00;;;;;;5055517;28;20028;-73
2022/06/09 08:32:15;;;;;;;1.33;0.75;;;23.80;58.00;;;;;;5055339;28;20024;-74
2022/06/09 08:34:43;;;;;;;0.95;0.70;;;23.80;58.10;;;;;;5073141;28;20028;-74
2022/06/09 08:37:08;;;;;;;2.55;0.80;;;23.90;58.40;;;;;;5055264;28;20063;-74
2022/06/09 08:39:35;;;;;;;0.60;0.60;;;23.90;57.50;;;;;;5055201;28;20067;-73
2022/06/09 08:42:31;;;;;;;1.17;0.77;;;23.80;56.90;;;;;;5055404;28;20035;-73
2022/06/09 08:45:00;;;;;;;1.40;0.65;;;23.80;57.80;;;;;;5055240;28;20127;-73
2022/06/09 08:47:46;;;;;;;1.13;0.80;;;23.80;58.50;;;;;;5055247;28;20075;-73
2022/06/09 08:50:40;;;;;;;1.27;0.70;;;23.80;58.10;;;;;;5055109;28;20063;-74
2022/06/09 08:53:15;;;;;;;1.00;0.80;;;23.70;58.90;;;;;;5055175;28;20043;-74
2022/06/09 08:55:54;;;;;;;3.22;0.90;;;23.70;59.10;;;;;;5054682;28;20053;-74
2022/06/09 08:58:43;;;;;;;1.27;0.70;;;23.60;57.70;;;;;;5055258;28;20060;-74
2022/06/09 09:01:17;;;;;;;1.25;0.60;;;23.50;58.60;;;;;;5056623;28;20044;-73
2022/06/09 09:04:18;;;;;;;0.60;0.55;;;23.50;59.10;;;;;;5061927;28;20435;-74
2022/06/09 09:06:57;;;;;;;1.05;0.70;;;23.40;59.00;;;;;;4981359;28;20026;-73
2022/06/09 09:09:27;;;;;;;1.15;0.70;;;23.40;58.40;;;;;;4981593;28;20026;-74
2022/06/09 09:12:01;;;;;;;3.40;0.80;;;23.50;58.10;;;;;;4981559;28;20034;-74
2022/06/09 09:15:15;;;;;;;1.25;0.70;;;23.50;58.20;;;;;;4981590;28;20085;-74
2022/06/09 09:17:47;;;;;;;1.45;0.60;;;23.50;58.60;;;;;;4954092;28;20022;-74
2022/06/09 09:20:16;;;;;;;1.27;0.93;;;23.60;59.90;;;;;;4981450;28;20038;-74
2022/06/09 09:22:54;;;;;;;1.33;0.75;;;23.90;59.50;;;;;;4981453;28;20034;-74
2022/06/09 09:25:28;;;;;;;0.52;0.52;;;24.10;59.50;;;;;;4981381;28;20034;-73
2022/06/09 09:28:23;;;;;;;1.13;0.95;;;24.50;59.60;;;;;;4981555;28;20121;-74
2022/06/09 09:30:55;;;;;;;1.20;1.00;;;24.80;57.80;;;;;;4981259;28;20061;-73
2022/06/09 09:33:21;;;;;;;1.30;0.70;;;25.00;55.30;;;;;;4981599;28;20029;-73
2022/06/09 09:35:50;;;;;;;0.68;0.68;;;25.10;55.30;;;;;;4997974;28;20109;-73
2022/06/09 09:38:20;;;;;;;1.30;0.90;;;25.20;56.20;;;;;;4981550;28;20041;-73
2022/06/09 09:40:50;;;;;;;0.93;0.60;;;25.20;55.90;;;;;;4981284;28;20030;-74
2022/06/09 09:43:26;;;;;;;2.08;1.05;;;25.00;54.60;;;;;;5012812;28;20123;-74
2022/06/09 09:45:57;;;;;;;2.67;0.85;;;24.90;53.40;;;;;;5061828;28;20135;-73
2022/06/09 09:48:28;;;;;;;1.52;0.60;;;24.60;52.30;;;;;;5061450;28;20021;-74
2022/06/09 09:51:11;;;;;;;0.70;0.55;;;24.50;54.50;;;;;;5061500;28;20476;-74
2022/06/09 09:53:58;;;;;;;1.02;0.60;;;24.30;55.70;;;;;;5061127;28;20039;-73
2022/06/09 09:56:36;;;;;;;2.75;0.50;;;24.30;55.40;;;;;;5061417;28;20076;-73
2022/06/09 09:59:15;;;;;;;0.47;0.32;;;24.20;56.80;;;;;;5060764;28;20033;-73
2022/06/09 10:10:26;;;;;;;0.40;0.40;;;24.40;56.40;;;;;;5079349;28;20491;-73
2022/06/09 10:12:57;;;;;;;4.90;0.60;;;24.60;56.80;;;;;;5047106;28;20408;-74
2022/06/09 10:15:26;;;;;;;0.47;0.40;;;24.80;55.30;;;;;;5077963;28;20028;-74
2022/06/09 10:18:07;;;;;;;1.05;0.47;;;24.90;54.60;;;;;;5072036;28;20066;-74
2022/06/09 10:21:05;;;;;;;3.85;0.95;;;25.00;54.90;;;;;;5076025;28;20025;-74
2022/06/09 10:23:31;;;;;;;0.88;0.43;;;25.30;56.50;;;;;;5075525;28;20032;-74
2022/06/09 10:26:14;;;;;;;0.30;0.30;;;25.50;54.80;;;;;;5057817;28;20436;-74
2022/06/09 10:28:59;;;;;;;0.90;0.50;;;25.70;55.10;;;;;;5073635;28;20035;-74
2022/06/09 10:31:25;;;;;;;1.58;0.40;;;26.00;55.70;;;;;;5051519;28;20381;-74
2022/06/09 10:33:59;;;;;;;0.40;0.30;;;26.20;55.00;;;;;;5041701;28;20116;-74
2022/06/09 10:36:33;;;;;;;;;;;26.30;54.50;;;;;;5064206;28;20025;-74
2022/06/09 10:39:30;;;;;;;0.30;0.30;;;26.40;56.40;;;;;;5057241;28;20360;-74
2022/06/09 10:42:22;;;;;;;1.95;0.50;;;26.40;52.40;;;;;;5055367;28;20485;-75
2022/06/09 10:45:03;;;;;;;8.68;2.00;;;26.40;52.10;;;;;;5053582;28;20032;-74
2022/06/09 10:57:40;;;;;;;0.43;0.20;;;26.40;53.10;;;;;;5062949;28;20094;-74
2022/06/09 11:00:37;;;;;;;0.50;0.50;;;26.40;51.90;;;;;;5071271;28;20025;-75
2022/06/09 11:03:12;;;;;;;6.68;0.93;;;26.30;52.80;;;;;;5054607;28;20075;-75
2022/06/09 11:05:59;;;;;;;6.22;1.17;;;26.30;52.10;;;;;;5055349;28;20044;-75
2022/06/09 11:08:54;;;;;;;1.08;0.60;;;26.30;52.40;;;;;;5040994;28;20059;-74
2022/06/09 11:11:52;;;;;;;1.95;0.77;;;26.20;51.60;;;;;;5036925;28;20082;-74
2022/06/09 11:14:40;;;;;;;10.13;1.10;;;26.10;51.90;;;;;;5036953;28;20057;-74
2022/06/09 11:17:12;;;;;;;1.25;0.77;;;26.10;52.40;;;;;;5055357;28;20115;-74
2022/06/09 11:19:56;;;;;;;1.08;0.57;;;26.00;50.70;;;;;;5035135;28;20056;-74
2022/06/09 11:22:47;;;;;;;1.90;0.60;;;26.00;52.80;;;;;;5044303;28;20358;-74
2022/06/09 11:25:34;;;;;;;1.38;0.60;;;26.00;51.20;;;;;;5072606;28;20119;-74
2022/06/09 11:28:13;;;;;;;1.98;1.10;;;26.10;51.90;;;;;;5055211;28;20115;-74
2022/06/09 11:30:55;;;;;;;1.20;0.60;;;26.20;51.60;;;;;;5055473;28;20029;-74
2022/06/09 11:33:41;;;;;;;1.98;1.00;;;26.10;51.00;;;;;;5050296;28;20063;-74
2022/06/09 11:36:15;;;;;;;1.80;0.80;;;26.00;50.50;;;;;;5053765;28;20037;-74
2022/06/09 11:38:56;;;;;;;3.72;1.00;;;25.90;51.30;;;;;;5063662;28;20473;-74
2022/06/09 11:41:54;;;;;;;1.95;0.82;;;25.80;49.80;;;;;;5053007;28;20033;-74
2022/06/09 11:44:38;;;;;;;2.15;1.00;;;25.70;51.30;;;;;;5033193;28;20439;-74
2022/06/09 11:47:12;;;;;;;;;;;25.50;51.70;;;;;;5054238;28;20029;-74
2022/06/09 11:49:44;;;;;;;2.80;0.82;;;25.50;53.50;;;;;;5036314;28;19904;-74
2022/06/09 11:52:23;;;;;;;2.97;1.13;;;25.40;52.20;;;;;;5036115;28;20083;-74
2022/06/09 11:54:51;;;;;;;1.75;0.93;;;25.30;53.10;;;;;;5026622;28;20053;-74
2022/06/09 11:57:36;;;;;;;0.82;0.75;;;25.20;52.80;;;;;;5032887;28;20381;-74
2022/06/09 12:00:24;;;;;;;1.13;0.82;;;25.10;54.10;;;;;;5032654;28;20536;-74
2022/06/09 12:03:23;;;;;;;1.98;1.17;;;24.90;53.10;;;;;;5033676;28;20096;-74
2022/06/09 12:05:57;;;;;;;2.58;1.20;;;24.90;55.10;;;;;;5032436;28;20193;-74
2022/06/09 12:08:44;;;;;;;1.08;0.93;;;24.80;55.20;;;;;;5015829;28;20021;-74
2022/06/09 12:11:18;;;;;;;2.13;1.08;;;24.60;54.60;;;;;;5016153;28;20393;-74
2022/06/09 12:13:55;;;;;;;1.30;1.00;;;24.50;54.40;;;;;;5034943;28;20049;-74
2022/06/09 12:16:25;;;;;;;1.77;1.15;;;24.30;55.20;;;;;;5053628;28;20025;-74
2022/06/09 12:19:17;;;;;;;1.10;1.00;;;24.10;55.50;;;;;;5053671;28;20125;-74
2022/06/09 12:21:59;;;;;;;2.33;1.58;;;24.00;56.10;;;;;;5035542;28;20021;-74
2022/06/09 12:24:30;;;;;;;4.05;1.20;;;24.00;55.70;;;;;;5035680;28;20025;-74
2022/06/09 12:27:27;;;;;;;2.65;1.10;;;23.90;55.90;;;;;;5035679;28;20057;-74
2022/06/09 12:29:59;;;;;;;5.32;1.35;;;23.90;56.90;;;;;;5035423;28;20461;-74
2022/06/09 12:32:28;;;;;;;3.63;1.35;;;23.80;55.70;;;;;;5035345;28;20476;-74
2022/06/09 12:34:55;;;;;;;1.67;1.08;;;23.80;56.60;;;;;;5035311;28;20483;-74
2022/06/09 12:37:34;;;;;;;2.22;1.50;;;23.80;56.60;;;;;;5052614;28;20021;-74
2022/06/09 12:40:16;;;;;;;1.30;1.20;;;23.90;57.50;;;;;;5035194;28;20040;-74
2022/06/09 12:42:57;;;;;;;4.40;1.90;;;23.80;57.60;;;;;;5035490;28;20112;-74
2022/06/09 12:45:32;;;;;;;2.80;1.00;;;23.80;56.30;;;;;;5053100;28;20099;-74
2022/06/09 12:48:04;;;;;;;2.58;1.50;;;23.70;57.50;;;;;;5052720;28;20543;-74
2022/06/09 12:50:30;;;;;;;5.75;1.40;;;23.80;57.20;;;;;;5052816;28;20061;-74
2022/06/09 12:53:04;;;;;;;2.53;1.60;;;23.70;56.20;;;;;;5035118;28;20140;-74
2022/06/09 12:55:33;;;;;;;2.50;1.40;;;23.70;56.00;;;;;;5049378;28;20140;-74
2022/06/09 12:58:22;;;;;;;2.28;1.45;;;23.70;57.20;;;;;;5055081;28;20024;-74
2022/06/09 13:00:58;;;;;;;1.52;1.40;;;23.70;57.50;;;;;;5055119;28;20033;-74
2022/06/09 13:03:31;;;;;;;2.83;1.40;;;23.70;56.90;;;;;;5055009;28;20020;-74
2022/06/09 13:06:13;;;;;;;2.17;1.55;;;23.70;58.00;;;;;;5055066;28;20036;-74
2022/06/09 13:08:45;;;;;;;2.50;1.60;;;23.70;58.10;;;;;;5054842;28;20056;-74
2022/06/09 13:14:13;;;;;;;1.88;1.60;;;23.80;57.80;;;;;;5072695;28;20127;-73
2022/06/09 13:16:45;;;;;;;1.95;1.63;;;23.80;56.90;;;;;;5054905;28;20055;-74
2022/06/09 13:19:18;;;;;;;2.70;1.33;;;23.80;56.00;;;;;;5054554;28;20029;-74
2022/06/09 13:21:45;;;;;;;2.33;1.42;;;23.80;57.50;;;;;;5073048;28;20050;-74
2022/06/09 13:24:27;;;;;;;4.35;1.40;;;23.80;58.20;;;;;;5072511;28;20028;-74
2022/06/09 13:26:54;;;;;;;3.83;1.50;;;23.90;58.50;;;;;;5072784;28;20017;-74
2022/06/09 13:29:28;;;;;;;2.55;1.30;;;24.00;57.70;;;;;;5054542;28;20029;-74
2022/06/09 13:32:21;;;;;;;1.67;1.48;;;24.10;57.80;;;;;;5054791;28;20029;-74
2022/06/09 13:34:49;;;;;;;3.65;1.73;;;24.10;58.00;;;;;;5054791;28;20385;-73
2022/06/09 13:37:35;;;;;;;2.47;1.55;;;24.20;57.20;;;;;;5073024;28;20025;-74
2022/06/09 13:40:09;;;;;;;4.50;1.42;;;24.20;57.20;;;;;;5054885;28;20041;-74
2022/06/09 13:42:57;;;;;;;1.73;1.27;;;24.10;56.60;;;;;;5072735;28;20051;-74
2022/06/09 13:45:30;;;;;;;5.20;2.00;;;24.10;57.30;;;;;;5072598;28;20178;-74